Time;durP1;ratioP1;P1;durP2;ratioP2;P2;SDS_P1;SDS_P2;PMS_P1;PMS_P2;Temp;Humidity;BMP_temperature;BMP_pressure;BME280_temperature;BME280_humidity;BME280_pressure;Samples;Min_cycle;Max_cycle;Signal;HPM_P1;HPM_P2
2021/10/06 00:01:06;;;;;;;8.90;8.10;;;;;;;13.35;80.47;100597.78;6236264;28;20240;-51
2021/10/06 00:04:29;;;;;;;9.53;8.60;;;;;;;13.21;80.89;100607.69;6237536;28;20189;-54
2021/10/06 00:07:49;;;;;;;7.90;7.17;;;;;;;13.81;78.72;100601.03;6237751;28;20599;-46
2021/10/06 00:11:10;;;;;;;8.70;7.97;;;;;;;13.64;79.03;100603.22;6235482;28;20229;-51
2021/10/06 00:14:31;;;;;;;9.63;8.83;;;;;;;13.32;80.28;100610.09;6231622;28;20217;-54
2021/10/06 00:17:52;;;;;;;9.30;8.50;;;;;;;13.35;80.52;100625.69;6235047;28;20220;-51
2021/10/06 00:21:15;;;;;;;9.67;8.73;;;;;;;13.42;80.21;100623.81;6240862;28;20224;-50
2021/10/06 00:24:35;;;;;;;8.43;7.63;;;;;;;13.70;79.33;100626.59;6237135;28;20197;-53
2021/10/06 00:27:56;;;;;;;9.20;8.50;;;;;;;13.54;79.68;100633.97;6244728;28;20539;-52
2021/10/06 00:31:17;;;;;;;7.70;7.17;;;;;;;13.61;79.69;100632.06;6233852;28;20322;-49
2021/10/06 00:34:38;;;;;;;9.47;8.70;;;;;;;13.47;79.61;100635.84;6243459;28;20212;-49
2021/10/06 00:38:00;;;;;;;9.37;8.53;;;;;;;13.59;79.03;100639.97;6237128;28;20236;-51
2021/10/06 00:41:21;;;;;;;9.20;8.37;;;;;;;13.39;80.12;100643.03;6248192;28;20240;-52
2021/10/06 00:44:42;;;;;;;9.97;9.03;;;;;;;13.40;80.19;100644.78;6240345;28;20192;-51
2021/10/06 00:48:03;;;;;;;9.50;8.70;;;;;;;13.45;79.89;100655.13;6237977;28;20634;-52
2021/10/06 00:51:24;;;;;;;9.27;8.43;;;;;;;13.35;79.93;100659.69;6236541;28;20228;-50
2021/10/06 00:54:46;;;;;;;10.40;8.67;;;;;;;13.18;81.11;100655.69;6240396;28;20212;-51
2021/10/06 00:58:08;;;;;;;10.83;9.83;;;;;;;13.46;80.30;100655.09;6237831;28;20232;-54
2021/10/06 01:01:29;;;;;;;9.20;8.40;;;;;;;13.30;80.41;100645.84;6233733;28;20227;-48
2021/10/06 01:04:50;;;;;;;10.50;9.63;;;;;;;13.25;80.75;100656.41;6243372;28;20192;-51
2021/10/06 01:08:11;;;;;;;8.83;7.97;;;;;;;13.21;80.65;100657.38;6243952;28;20511;-51
2021/10/06 01:11:33;;;;;;;9.10;8.30;;;;;;;13.41;79.63;100663.94;6241046;28;20803;-50
2021/10/06 01:14:55;;;;;;;9.27;8.47;;;;;;;13.38;79.46;100672.72;6239785;28;20213;-52
2021/10/06 01:18:16;;;;;;;9.17;8.27;;;;;;;13.40;78.58;100665.69;6241259;28;20244;-54
2021/10/06 01:21:39;;;;;;;9.70;8.80;;;;;;;13.36;78.72;100664.06;6239536;28;20256;-53
2021/10/06 01:25:01;;;;;;;8.63;7.67;;;;;;;13.31;78.75;100677.22;6243234;28;20193;-51
2021/10/06 01:28:22;;;;;;;9.93;8.47;;;;;;;13.50;77.67;100677.66;6241902;28;20521;-48
2021/10/06 01:31:44;;;;;;;8.90;8.00;;;;;;;13.58;77.58;100678.31;6244233;28;20592;-56
2021/10/06 01:35:08;;;;;;;8.40;7.60;;;;;;;13.48;77.66;100694.28;6240296;28;20216;-51
2021/10/06 01:38:30;;;;;;;10.53;8.50;;;;;;;13.30;78.21;100695.53;6243771;28;20220;-52
2021/10/06 01:41:51;;;;;;;8.70;7.80;;;;;;;13.17;78.81;100685.34;6241957;28;20232;-47
2021/10/06 01:45:19;;;;;;;8.77;7.83;;;;;;;13.20;78.51;100690.50;6242438;28;20258;-53
2021/10/06 01:48:40;;;;;;;8.50;7.73;;;;;;;13.43;77.67;100697.00;6237135;28;20221;-49
2021/10/06 01:52:01;;;;;;;11.10;8.50;;;;;;;13.23;77.63;100701.78;6242437;28;20323;-50
2021/10/06 01:55:28;;;;;;;11.43;9.00;;;;;;;13.25;77.52;100708.69;6243038;28;20213;-51
2021/10/06 01:58:50;;;;;;;9.90;8.97;;;;;;;13.37;76.77;100705.00;6242505;28;20228;-51
2021/10/06 02:02:10;;;;;;;9.87;8.97;;;;;;;12.97;77.28;100716.28;6241540;28;20604;-50
2021/10/06 02:05:33;;;;;;;9.10;8.20;;;;;;;12.97;77.63;100718.91;6238743;28;20197;-52
2021/10/06 02:08:54;;;;;;;9.70;8.80;;;;;;;13.15;76.27;100713.28;6235545;28;20196;-51
2021/10/06 02:12:16;;;;;;;9.03;8.10;;;;;;;13.20;75.39;100715.78;6245055;28;20334;-51
2021/10/06 02:15:37;;;;;;;9.80;8.10;;;;;;;13.23;75.26;100717.47;6240653;28;20233;-54
2021/10/06 02:18:58;;;;;;;15.63;10.27;;;;;;;12.82;76.75;100719.22;6240972;28;20208;-50
2021/10/06 02:22:19;;;;;;;12.80;10.07;;;;;;;13.19;75.40;100717.53;6242387;28;20231;-52
2021/10/06 02:25:41;;;;;;;9.30;8.40;;;;;;;13.06;75.39;100718.69;6240366;28;20578;-51
2021/10/06 02:29:04;;;;;;;9.90;8.43;;;;;;;13.14;75.31;100723.75;6240629;28;20291;-49
2021/10/06 02:32:25;;;;;;;9.10;8.27;;;;;;;13.47;73.19;100718.72;6241977;28;20623;-49
2021/10/06 02:35:46;;;;;;;9.57;8.57;;;;;;;13.06;75.07;100736.13;6239327;28;20209;-50
2021/10/06 02:39:07;;;;;;;9.63;8.70;;;;;;;12.99;75.57;100735.41;6240777;28;20200;-49
2021/10/06 02:42:28;;;;;;;10.30;9.27;;;;;;;12.98;76.27;100733.69;6242576;28;20231;-50
2021/10/06 02:45:50;;;;;;;13.60;9.57;;;;;;;13.44;74.20;100735.34;6239703;28;20201;-51
2021/10/06 02:49:11;;;;;;;10.63;9.20;;;;;;;13.41;74.42;100740.63;6242049;28;20659;-52
2021/10/06 02:52:32;;;;;;;10.53;8.50;;;;;;;13.30;75.30;100740.88;6240574;28;20331;-49
2021/10/06 02:55:53;;;;;;;9.83;8.17;;;;;;;13.25;75.19;100744.47;6244004;28;20244;-52
2021/10/06 02:59:14;;;;;;;10.37;9.37;;;;;;;13.25;75.10;100750.53;6243131;28;20200;-52
2021/10/06 03:02:39;;;;;;;12.10;9.70;;;;;;;13.53;74.08;100750.84;6235534;28;20319;-49
2021/10/06 03:06:00;;;;;;;9.23;8.00;;;;;;;13.42;74.02;100760.69;6240099;28;20225;-49
2021/10/06 03:09:21;;;;;;;8.37;7.17;;;;;;;13.26;73.92;100764.47;6241395;28;20189;-51
2021/10/06 03:12:42;;;;;;;7.80;7.10;;;;;;;13.27;73.51;100768.81;6240590;28;20251;-51
2021/10/06 03:16:03;;;;;;;9.50;7.30;;;;;;;12.96;74.22;100764.22;6238739;28;20257;-52
2021/10/06 03:19:25;;;;;;;12.40;7.17;;;;;;;12.99;73.86;100764.16;6239508;28;20278;-52
2021/10/06 03:22:46;;;;;;;7.97;7.23;;;;;;;13.17;73.48;100781.22;6242624;28;20229;-47
2021/10/06 03:26:06;;;;;;;7.33;6.73;;;;;;;13.28;72.54;100776.66;6239807;28;20823;-47
2021/10/06 03:29:28;;;;;;;7.93;6.53;;;;;;;12.84;73.90;100786.22;6240064;28;20201;-54
2021/10/06 03:32:49;;;;;;;8.53;7.60;;;;;;;13.00;74.13;100792.00;6239004;28;20224;-52
2021/10/06 03:36:12;;;;;;;7.57;6.53;;;;;;;12.91;74.20;100789.56;6240371;28;20221;-52
2021/10/06 03:39:33;;;;;;;13.80;8.17;;;;;;;13.07;72.79;100804.09;6237535;28;20584;-49
2021/10/06 03:42:54;;;;;;;8.27;7.47;;;;;;;12.90;73.73;100801.78;6239618;28;20232;-52
2021/10/06 03:46:15;;;;;;;8.80;7.33;;;;;;;13.04;73.31;100809.34;6238567;28;20789;-51
2021/10/06 03:49:35;;;;;;;9.70;8.30;;;;;;;12.93;73.32;100816.53;6241048;28;20276;-48
2021/10/06 03:52:58;;;;;;;8.23;7.43;;;;;;;12.96;73.09;100821.72;6251643;28;20236;-50
2021/10/06 03:56:19;;;;;;;7.73;6.60;;;;;;;13.01;72.13;100825.13;6237750;28;20232;-50
2021/10/06 03:59:40;;;;;;;12.47;5.73;;;;;;;12.85;72.58;100828.88;6240824;28;20213;-48
2021/10/06 04:03:00;;;;;;;6.70;5.57;;;;;;;12.82;72.84;100821.13;6236464;28;20221;-51
2021/10/06 04:06:21;;;;;;;8.27;6.37;;;;;;;12.71;72.63;100827.38;6235594;28;20236;-50
2021/10/06 04:09:44;;;;;;;8.53;5.67;;;;;;;12.90;72.38;100830.53;6238171;28;20637;-51
2021/10/06 04:13:04;;;;;;;6.03;5.10;;;;;;;13.05;71.82;100837.25;6238651;28;20319;-51
2021/10/06 04:16:25;;;;;;;8.73;6.53;;;;;;;12.79;73.00;100835.97;6230768;28;20244;-51
2021/10/06 04:19:46;;;;;;;12.10;6.13;;;;;;;12.61;74.10;100844.97;6232563;28;20591;-53
2021/10/06 04:23:07;;;;;;;6.73;6.03;;;;;;;12.67;74.33;100849.22;6237134;28;20220;-51
2021/10/06 04:26:30;;;;;;;8.30;6.77;;;;;;;12.54;74.65;100850.31;6235474;28;20243;-51
2021/10/06 04:29:51;;;;;;;7.53;6.87;;;;;;;12.45;75.25;100859.19;6239768;28;20201;-52
2021/10/06 04:33:11;;;;;;;10.30;6.10;;;;;;;12.57;74.92;100860.75;6234001;28;20225;-51
2021/10/06 04:36:33;;;;;;;9.20;7.90;;;;;;;12.81;73.83;100862.06;6231368;28;20231;-54
2021/10/06 04:39:54;;;;;;;10.80;7.70;;;;;;;12.71;74.05;100858.75;6237422;28;20190;-51
2021/10/06 04:43:16;;;;;;;9.17;7.47;;;;;;;12.74;74.01;100861.31;6236481;28;20225;-52
2021/10/06 04:46:37;;;;;;;8.33;7.30;;;;;;;12.82;73.59;100874.25;6235303;28;20250;-50
2021/10/06 04:49:58;;;;;;;14.97;8.47;;;;;;;12.50;74.53;100880.84;6236882;28;20196;-51
2021/10/06 04:53:19;;;;;;;8.50;7.70;;;;;;;12.61;74.45;100885.91;6238263;28;20228;-51
2021/10/06 04:56:40;;;;;;;8.27;7.47;;;;;;;12.60;74.63;100890.28;6239578;28;20235;-54
2021/10/06 05:00:04;;;;;;;11.37;8.30;;;;;;;12.50;75.00;100882.63;6235922;28;20208;-50
2021/10/06 05:03:25;;;;;;;8.73;7.77;;;;;;;12.28;75.75;100896.00;6231937;28;20228;-52
2021/10/06 05:06:46;;;;;;;10.50;9.50;;;;;;;12.29;76.01;100900.34;6232017;28;20318;-49
2021/10/06 05:10:08;;;;;;;9.93;8.47;;;;;;;12.52;75.19;100899.13;6230872;28;20288;-51
2021/10/06 05:13:29;;;;;;;9.90;8.90;;;;;;;12.59;74.71;100898.16;6235139;28;20810;-52
2021/10/06 05:16:52;;;;;;;9.87;8.53;;;;;;;12.50;75.02;100900.91;6232866;28;20236;-51
2021/10/06 05:20:13;;;;;;;11.27;8.30;;;;;;;12.50;74.83;100901.75;6232602;28;20979;-53
2021/10/06 05:23:35;;;;;;;13.97;8.70;;;;;;;12.30;75.18;100903.81;6232054;28;20221;-51
2021/10/06 05:26:55;;;;;;;9.73;8.83;;;;;;;12.36;75.10;100915.03;6218747;28;20550;-53
2021/10/06 05:30:17;;;;;;;12.13;8.77;;;;;;;11.99;76.90;100920.75;6230711;28;20197;-53
2021/10/06 05:33:39;;;;;;;11.60;8.63;;;;;;;12.14;76.43;100924.06;6231216;28;20228;-47
2021/10/06 05:37:00;;;;;;;15.23;9.37;;;;;;;12.15;76.20;100925.78;6230375;28;20477;-51
2021/10/06 05:40:21;;;;;;;11.93;8.83;;;;;;;12.11;76.66;100934.53;6227195;28;20197;-49
2021/10/06 05:43:42;;;;;;;11.77;8.27;;;;;;;12.53;74.79;100940.91;6229046;28;20224;-49
2021/10/06 05:47:03;;;;;;;11.30;8.50;;;;;;;12.43;74.83;100947.16;6225380;28;20600;-53
2021/10/06 05:50:26;;;;;;;11.57;7.80;;;;;;;12.14;76.38;100947.56;6235175;28;20228;-53
2021/10/06 05:53:47;;;;;;;13.60;8.87;;;;;;;12.20;76.21;100953.56;6235051;28;20205;-49
2021/10/06 05:57:08;;;;;;;11.77;8.73;;;;;;;12.06;77.09;100959.84;6237901;28;20250;-51
2021/10/06 06:00:29;;;;;;;11.73;8.33;;;;;;;11.96;76.91;100966.91;6238547;28;20201;-50
2021/10/06 06:03:49;;;;;;;15.13;9.90;;;;;;;12.10;76.50;100974.59;6232908;28;20619;-51
2021/10/06 06:07:12;;;;;;;9.30;8.27;;;;;;;12.06;76.99;100973.78;6234367;28;20232;-50
2021/10/06 06:10:33;;;;;;;11.80;9.07;;;;;;;12.42;76.15;100974.16;6224664;28;20236;-52
2021/10/06 06:13:54;;;;;;;8.77;7.97;;;;;;;12.26;76.54;100981.34;6235209;28;20496;-47
2021/10/06 06:17:15;;;;;;;15.37;8.80;;;;;;;12.46;76.61;100995.88;6229258;28;20244;-48
2021/10/06 06:20:36;;;;;;;8.53;7.73;;;;;;;12.06;76.20;101005.09;6227275;28;20216;-51
2021/10/06 06:23:58;;;;;;;11.30;8.33;;;;;;;12.22;76.82;100995.31;6232599;28;20193;-49
2021/10/06 06:27:19;;;;;;;8.43;7.57;;;;;;;12.30;75.62;101003.06;6236774;28;20224;-48
2021/10/06 06:30:41;;;;;;;10.43;8.17;;;;;;;12.23;75.88;101002.25;6233755;28;20229;-49
2021/10/06 06:34:02;;;;;;;11.20;7.57;;;;;;;12.35;75.52;101003.88;6239759;28;20520;-48
2021/10/06 06:37:22;;;;;;;7.97;7.17;;;;;;;12.46;74.56;101007.16;6239285;28;20241;-50
2021/10/06 06:40:45;;;;;;;8.57;6.90;;;;;;;12.46;74.02;101008.94;6229903;28;20197;-51
2021/10/06 06:44:06;;;;;;;11.10;8.13;;;;;;;12.48;74.60;101017.59;6244152;28;20213;-48
2021/10/06 06:47:27;;;;;;;8.23;7.43;;;;;;;12.89;72.62;101024.84;6240141;28;20236;-52
2021/10/06 06:50:52;;;;;;;7.97;7.13;;;;;;;12.63;73.13;101017.38;6230265;28;20338;-49
2021/10/06 06:54:13;;;;;;;8.57;7.50;;;;;;;12.82;72.87;101027.59;6243383;28;20232;-53
2021/10/06 06:57:36;;;;;;;7.97;7.17;;;;;;;12.64;72.70;101032.19;6235562;28;20498;-49
2021/10/06 07:00:57;;;;;;;10.07;7.00;;;;;;;12.60;73.29;101027.88;6234340;28;20253;-48
2021/10/06 07:04:18;;;;;;;8.53;6.53;;;;;;;12.77;72.55;101035.47;6242088;28;20590;-51
2021/10/06 07:07:39;;;;;;;11.93;7.33;;;;;;;12.33;73.73;101040.44;6241364;28;20228;-49
2021/10/06 07:11:00;;;;;;;8.07;6.20;;;;;;;13.00;71.80;101046.44;6235251;28;20554;-53
2021/10/06 07:14:22;;;;;;;7.10;6.40;;;;;;;13.08;70.48;101054.16;6238051;28;20216;-49
2021/10/06 07:17:43;;;;;;;6.33;5.57;;;;;;;13.30;70.34;101059.09;6227692;28;20237;-51
2021/10/06 07:21:04;;;;;;;6.37;5.40;;;;;;;13.34;70.13;101068.63;6236078;28;20359;-47
2021/10/06 07:24:25;;;;;;;7.73;5.57;;;;;;;13.51;69.65;101070.94;6237673;28;20189;-50
2021/10/06 07:27:46;;;;;;;12.70;5.50;;;;;;;13.52;69.42;101067.44;6229671;28;20229;-50
2021/10/06 07:31:08;;;;;;;5.73;5.03;;;;;;;13.48;70.26;101077.09;6233909;28;20232;-51
2021/10/06 07:34:30;;;;;;;9.93;5.43;;;;;;;13.47;70.11;101079.75;6230259;28;20292;-49
2021/10/06 07:37:52;;;;;;;5.73;5.23;;;;;;;13.40;69.76;101081.59;6232316;28;20328;-50
2021/10/06 07:41:13;;;;;;;7.20;5.23;;;;;;;13.61;69.41;101092.59;6224067;28;20260;-48
2021/10/06 07:44:34;;;;;;;9.20;5.83;;;;;;;13.54;69.04;101091.84;6233559;28;20578;-51
2021/10/06 07:47:56;;;;;;;6.20;5.60;;;;;;;13.30;69.43;101103.53;6236229;28;20565;-52
2021/10/06 07:51:18;;;;;;;8.33;4.97;;;;;;;13.62;68.79;101107.41;6235863;28;21658;-52
2021/10/06 07:54:39;;;;;;;5.20;4.70;;;;;;;13.38;68.73;101114.78;6241857;28;20208;-53
2021/10/06 07:58:00;;;;;;;5.63;4.30;;;;;;;13.61;68.61;101113.50;6228559;28;20225;-46
2021/10/06 08:01:21;;;;;;;6.93;5.40;;;;;;;13.54;68.10;101116.25;6231942;28;20232;-46
2021/10/06 08:04:44;;;;;;;6.23;4.53;;;;;;;13.50;67.90;101119.81;6236269;28;20201;-49
2021/10/06 08:08:04;;;;;;;4.50;3.83;;;;;;;13.45;67.18;101121.63;6233366;28;20249;-49
2021/10/06 08:11:25;;;;;;;6.57;3.20;;;;;;;13.58;66.70;101128.38;6228715;28;20228;-52
2021/10/06 08:14:47;;;;;;;8.40;4.23;;;;;;;13.71;66.31;101125.56;6227305;28;20693;-49
2021/10/06 08:18:08;;;;;;;4.33;3.37;;;;;;;13.42;66.50;101140.00;6235286;28;20221;-50
2021/10/06 08:21:30;;;;;;;8.87;4.10;;;;;;;14.02;65.05;101131.13;6236562;28;20861;-47
2021/10/06 08:24:51;;;;;;;8.73;3.50;;;;;;;13.71;65.12;101138.66;6235543;28;20212;-48
2021/10/06 08:28:12;;;;;;;4.83;3.13;;;;;;;13.93;64.46;101140.00;6231111;28;20224;-53
2021/10/06 08:31:35;;;;;;;6.90;3.33;;;;;;;14.16;63.47;101143.97;6234652;28;20228;-54
2021/10/06 08:34:56;;;;;;;6.43;3.70;;;;;;;14.08;63.57;101161.59;6232277;28;20204;-50
2021/10/06 08:38:19;;;;;;;4.77;3.17;;;;;;;14.27;62.35;101162.09;6237360;28;20244;-52
2021/10/06 08:41:39;;;;;;;6.50;3.67;;;;;;;14.09;63.17;101164.16;6230540;28;20239;-52
2021/10/06 08:45:02;;;;;;;7.77;2.80;;;;;;;13.96;63.35;101166.13;6234105;28;20193;-50
2021/10/06 08:48:23;;;;;;;4.87;3.50;;;;;;;14.53;60.99;101174.69;6229169;28;20252;-50
2021/10/06 08:51:44;;;;;;;5.87;3.23;;;;;;;14.68;61.36;101174.41;6228149;28;20253;-50
2021/10/06 08:55:10;;;;;;;9.37;3.40;;;;;;;14.28;61.80;101177.78;6233095;28;20205;-51
2021/10/06 08:58:31;;;;;;;8.57;2.67;;;;;;;14.78;60.10;101167.22;6231336;28;20236;-52
2021/10/06 09:01:52;;;;;;;7.17;3.27;;;;;;;15.49;58.81;101171.78;6230181;28;20229;-49
2021/10/06 09:05:14;;;;;;;3.47;2.30;;;;;;;15.40;58.73;101174.59;6232056;28;20212;-51
2021/10/06 09:08:36;;;;;;;6.77;2.40;;;;;;;15.30;59.11;101191.47;6230656;28;20212;-50
2021/10/06 09:11:59;;;;;;;4.83;2.63;;;;;;;14.49;61.24;101200.09;6232657;28;22282;-49
2021/10/06 09:15:20;;;;;;;3.07;2.43;;;;;;;14.27;60.96;101202.25;6235721;28;20236;-52
2021/10/06 09:18:41;;;;;;;3.73;2.07;;;;;;;14.89;59.16;101214.22;6214034;28;20228;-49
2021/10/06 09:22:02;;;;;;;3.13;1.80;;;;;;;15.44;56.66;101201.63;6180143;28;20685;-52
2021/10/06 09:25:27;;;;;;;5.80;2.77;;;;;;;15.53;56.23;101202.28;6235387;28;20197;-49
2021/10/06 09:28:50;;;;;;;6.10;2.30;;;;;;;15.30;56.80;101210.69;6238994;28;20196;-50
2021/10/06 09:32:21;;;;;;;5.33;2.70;;;;;;;15.75;55.63;101218.41;6236505;28;20497;-49
2021/10/06 09:35:41;;;;;;;3.07;2.07;;;;;;;15.30;55.12;101230.81;6231172;28;20278;-53
2021/10/06 09:39:06;;;;;;;6.30;2.53;;;;;;;15.54;55.36;101234.63;6234964;28;20252;-46
2021/10/06 09:42:27;;;;;;;4.17;2.13;;;;;;;16.03;53.87;101230.88;6231822;28;20303;-50
2021/10/06 09:45:56;;;;;;;3.40;1.87;;;;;;;15.88;54.32;101224.25;6234968;28;20204;-49
2021/10/06 09:49:22;;;;;;;3.00;2.07;;;;;;;15.05;55.09;101241.84;6234332;28;20201;-49
2021/10/06 09:52:43;;;;;;;1.73;1.27;;;;;;;16.54;51.27;101240.94;6237196;28;20515;-49
2021/10/06 09:56:05;;;;;;;4.03;2.17;;;;;;;16.68;50.34;101231.78;6235407;28;20229;-50
2021/10/06 09:59:26;;;;;;;4.45;2.00;;;;;;;21.28;40.58;101227.06;6217947;28;20209;-53
2021/10/06 10:02:49;;;;;;;5.38;2.30;;;;;;;23.35;35.69;101219.06;6222553;28;20224;-53
2021/10/06 10:06:10;;;;;;;2.05;1.10;;;;;;;22.53;37.52;101238.56;6219517;28;20236;-48
2021/10/06 10:09:32;;;;;;;3.33;1.60;;;;;;;22.52;36.22;101231.50;6228367;28;20200;-51
2021/10/06 10:12:53;;;;;;;2.53;1.67;;;;;;;22.28;36.30;101235.47;6232036;28;20668;-54
2021/10/06 10:16:15;;;;;;;3.15;1.73;;;;;;;22.28;36.80;101240.78;6236746;28;20228;-48
2021/10/06 10:19:38;;;;;;;3.00;1.40;;;;;;;22.37;35.99;101240.28;6236027;28;20209;-49
2021/10/06 10:23:02;;;;;;;5.22;2.20;;;;;;;20.25;41.01;101249.25;6232166;28;20630;-52
2021/10/06 10:26:24;;;;;;;1.52;1.13;;;;;;;19.64;41.91;101249.13;6225030;28;20228;-51
2021/10/06 10:29:48;;;;;;;4.53;2.65;;;;;;;18.54;44.19;101254.97;6235621;28;20257;-51
2021/10/06 10:33:09;;;;;;;2.78;1.33;;;;;;;17.20;46.49;101261.06;6232641;28;22314;-47
2021/10/06 10:36:48;;;;;;;2.03;1.63;;;;;;;16.61;47.88;101272.31;6232072;28;20316;-49
2021/10/06 10:40:42;;;;;;;4.68;2.05;;;;;;;16.23;49.47;101272.41;6236596;28;20716;-48
2021/10/06 10:44:07;;;;;;;2.75;1.65;;;;;;;16.39;49.51;101286.03;6234833;28;20637;-53
2021/10/06 10:47:28;;;;;;;3.20;1.40;;;;;;;15.65;51.68;101289.53;6232934;28;20233;-53
2021/10/06 10:51:10;;;;;;;3.00;1.43;;;;;;;15.73;51.86;101282.38;6231722;28;20224;-49
2021/10/06 10:54:33;;;;;;;2.63;2.00;;;;;;;15.82;51.80;101287.41;6221857;28;21045;-51
2021/10/06 10:58:28;;;;;;;7.43;2.00;;;;;;;15.88;51.88;101299.56;6225839;28;20229;-53
2021/10/06 11:01:54;;;;;;;2.20;1.77;;;;;;;15.96;52.74;101304.63;6229091;28;20250;-52
2021/10/06 11:05:16;;;;;;;2.13;1.70;;;;;;;16.03;53.08;101308.81;6231881;28;20201;-46
2021/10/06 11:08:37;;;;;;;6.33;1.63;;;;;;;16.19;52.61;101306.66;6237110;28;20776;-47
2021/10/06 11:12:35;;;;;;;3.50;2.10;;;;;;;15.59;52.83;101316.78;6233280;28;20630;-49
2021/10/06 11:15:57;;;;;;;2.60;1.53;;;;;;;15.62;53.05;101323.72;6232939;28;20529;-49
2021/10/06 11:19:40;;;;;;;6.43;2.97;;;;;;;15.90;53.10;101322.25;6235305;28;20212;-50
2021/10/06 11:23:01;;;;;;;6.30;1.50;;;;;;;15.40;53.29;101334.69;6233183;28;20629;-54
2021/10/06 11:26:35;;;;;;;3.63;1.40;;;;;;;15.64;53.12;101327.19;6234899;28;20233;-52
2021/10/06 11:29:58;;;;;;;5.27;1.93;;;;;;;15.87;54.00;101332.81;6237601;28;20192;-51
2021/10/06 11:33:26;;;;;;;4.93;2.50;;;;;;;15.77;53.27;101330.44;6235109;28;20224;-50
2021/10/06 11:36:52;;;;;;;1.73;1.63;;;;;;;16.34;51.66;101332.56;6235525;28;20224;-52
2021/10/06 11:40:17;;;;;;;4.13;1.77;;;;;;;16.52;51.25;101336.53;6235493;28;20201;-50
2021/10/06 11:43:40;;;;;;;3.67;1.63;;;;;;;16.61;51.30;101331.00;6235950;28;20225;-49
2021/10/06 11:47:03;;;;;;;5.13;1.70;;;;;;;16.43;51.29;101337.59;6233096;28;20264;-52
2021/10/06 11:50:26;;;;;;;3.43;2.27;;;;;;;15.92;52.76;101348.47;6231532;28;20197;-51
2021/10/06 11:53:48;;;;;;;1.63;1.23;;;;;;;16.33;52.92;101334.34;6226607;28;20316;-46
2021/10/06 11:57:13;;;;;;;3.20;1.33;;;;;;;16.12;52.26;101346.22;6241057;28;20232;-53
2021/10/06 12:00:34;;;;;;;3.57;1.30;;;;;;;15.79;52.54;101358.38;6242566;28;20192;-48
2021/10/06 12:03:55;;;;;;;2.67;1.40;;;;;;;15.99;52.55;101362.31;6240716;28;20188;-52
2021/10/06 12:07:20;;;;;;;3.33;1.73;;;;;;;15.94;53.61;101365.06;6230478;28;20327;-50
2021/10/06 12:10:42;;;;;;;3.23;1.60;;;;;;;16.08;53.67;101368.22;6234299;28;20559;-51
2021/10/06 12:14:20;;;;;;;2.37;2.17;;;;;;;15.62;54.63;101376.22;6235412;28;20210;-51
2021/10/06 12:17:43;;;;;;;6.83;2.40;;;;;;;16.21;56.01;101387.22;6230389;28;20259;-52
2021/10/06 12:21:17;;;;;;;5.03;2.00;;;;;;;15.94;54.16;101386.94;6232827;28;20232;-55
2021/10/06 12:24:40;;;;;;;4.97;1.60;;;;;;;15.84;54.69;101390.66;6235758;28;20200;-52
2021/10/06 12:28:07;;;;;;;1.83;1.63;;;;;;;16.13;54.00;101394.41;6229710;28;20228;-49
2021/10/06 12:31:31;;;;;;;3.13;1.30;;;;;;;16.20;53.63;101397.75;6228256;28;20668;-50
2021/10/06 12:35:04;;;;;;;2.50;1.80;;;;;;;16.04;54.11;101413.00;6233039;28;20217;-50
2021/10/06 12:38:37;;;;;;;4.00;1.70;;;;;;;15.96;54.56;101412.31;6233640;28;20228;-52
2021/10/06 12:42:02;;;;;;;1.93;1.40;;;;;;;15.57;55.31;101407.84;6234045;28;20662;-53
2021/10/06 12:45:25;;;;;;;2.27;1.70;;;;;;;16.01;53.67;101413.06;6233492;28;20224;-51
2021/10/06 12:48:48;;;;;;;6.77;2.03;;;;;;;15.90;53.63;101416.78;6232138;28;20208;-52
2021/10/06 12:52:09;;;;;;;2.03;1.60;;;;;;;16.20;53.04;101413.50;6226281;28;20251;-48
2021/10/06 12:55:34;;;;;;;1.90;1.47;;;;;;;15.80;52.97;101420.53;6242114;28;20707;-48
2021/10/06 12:58:58;;;;;;;2.13;1.53;;;;;;;16.09;53.40;101421.63;6224340;28;20602;-52
2021/10/06 13:02:19;;;;;;;2.90;1.40;;;;;;;16.43;52.87;101420.88;6227097;28;20224;-52
2021/10/06 13:05:40;;;;;;;4.10;1.67;;;;;;;15.98;54.16;101429.75;6229389;28;20208;-48
2021/10/06 13:09:04;;;;;;;2.03;1.50;;;;;;;16.19;53.95;101433.69;6235708;28;20189;-51
2021/10/06 13:12:25;;;;;;;3.43;1.63;;;;;;;15.96;53.76;101433.34;6238552;28;20316;-51
2021/10/06 13:15:48;;;;;;;2.47;1.80;;;;;;;16.09;53.13;101432.13;6241244;28;20193;-50
2021/10/06 13:19:09;;;;;;;4.63;1.30;;;;;;;16.50;52.75;101433.81;6234123;28;20661;-53
2021/10/06 13:22:30;;;;;;;2.97;1.30;;;;;;;16.84;51.87;101434.78;6238668;28;20255;-48
2021/10/06 13:25:51;;;;;;;2.37;1.77;;;;;;;17.01;51.69;101432.59;6240762;28;20244;-52
2021/10/06 13:29:12;;;;;;;1.67;1.30;;;;;;;16.60;52.47;101439.72;6254761;28;20208;-51
2021/10/06 13:32:36;;;;;;;3.08;1.65;;;;;;;22.82;39.19;101429.97;6234958;28;20232;-54
2021/10/06 13:35:57;;;;;;;2.92;1.40;;;;;;;22.09;38.38;101437.91;6236756;28;20236;-51
2021/10/06 13:39:18;;;;;;;2.67;1.25;;;;;;;21.78;38.41;101436.69;6234064;28;20224;-51
2021/10/06 13:42:39;;;;;;;4.97;1.67;;;;;;;20.93;37.97;101459.88;6231002;28;20225;-51
2021/10/06 13:46:00;;;;;;;1.70;1.48;;;;;;;21.69;36.90;101442.41;6233718;28;20228;-51
2021/10/06 13:49:23;;;;;;;2.15;1.13;;;;;;;19.42;41.35;101452.47;6229003;28;20201;-52
2021/10/06 13:52:43;;;;;;;1.48;1.02;;;;;;;19.66;41.09;101442.78;6232516;28;20229;-52
2021/10/06 13:56:05;;;;;;;2.67;1.33;;;;;;;19.24;41.11;101460.13;6242385;28;20233;-52
2021/10/06 13:59:26;;;;;;;6.50;1.52;;;;;;;18.95;42.63;101476.97;6242151;28;20200;-48
2021/10/06 14:02:47;;;;;;;3.75;1.17;;;;;;;17.57;46.43;101482.00;6233197;28;20225;-47
2021/10/06 14:06:10;;;;;;;1.98;1.00;;;;;;;18.18;45.62;101478.50;6241193;28;20232;-52
2021/10/06 14:09:31;;;;;;;2.45;1.50;;;;;;;18.84;44.34;101476.44;6235695;28;20193;-53
2021/10/06 14:12:53;;;;;;;1.38;1.10;;;;;;;18.29;45.83;101485.19;6234540;28;20228;-55
2021/10/06 14:16:14;;;;;;;2.42;1.35;;;;;;;19.39;43.08;101481.66;6235075;28;20581;-49
2021/10/06 14:19:35;;;;;;;2.78;1.27;;;;;;;18.68;43.67;101490.09;6236951;28;20598;-54
2021/10/06 14:22:57;;;;;;;1.27;1.00;;;;;;;17.99;45.06;101483.47;6238608;28;20779;-49
2021/10/06 14:26:18;;;;;;;3.08;1.08;;;;;;;18.41;43.57;101497.13;6240568;28;20787;-49
2021/10/06 14:29:39;;;;;;;2.05;1.02;;;;;;;18.69;42.34;101502.41;6243149;28;20294;-50
2021/10/06 14:33:01;;;;;;;2.47;1.40;;;;;;;19.84;40.50;101500.25;6240964;28;20224;-51
2021/10/06 14:36:22;;;;;;;1.52;1.42;;;;;;;22.16;35.88;101505.66;6238563;28;20229;-52
2021/10/06 14:39:44;;;;;;;2.97;1.30;;;;;;;20.67;38.39;101501.53;6241687;28;20201;-51
2021/10/06 14:43:06;;;;;;;1.60;1.17;;;;;;;19.33;40.73;101511.75;6240059;28;20244;-52
2021/10/06 14:46:27;;;;;;;2.28;1.85;;;;;;;19.98;39.89;101517.41;6240847;28;20229;-53
2021/10/06 14:49:48;;;;;;;2.53;1.42;;;;;;;19.82;39.49;101520.59;6240393;28;20189;-48
2021/10/06 14:53:09;;;;;;;2.65;1.20;;;;;;;17.83;44.13;101539.19;6238796;28;20737;-49
2021/10/06 14:56:31;;;;;;;2.63;0.75;;;;;;;17.95;43.73;101545.06;6233598;28;20229;-53
2021/10/06 14:59:52;;;;;;;2.78;1.20;;;;;;;16.51;47.60;101545.09;6235266;28;20212;-52
2021/10/06 15:03:15;;;;;;;3.10;1.17;;;;;;;17.16;46.26;101543.59;6238711;28;20225;-53
2021/10/06 15:06:36;;;;;;;1.98;0.88;;;;;;;17.26;46.58;101545.97;6245098;28;20617;-51
2021/10/06 15:09:58;;;;;;;2.08;1.60;;;;;;;16.80;47.69;101547.06;6238235;28;20519;-54
2021/10/06 15:13:20;;;;;;;3.33;1.60;;;;;;;17.88;45.08;101545.25;6233473;28;20236;-53
2021/10/06 15:16:41;;;;;;;6.13;4.00;;;;;;;18.17;45.20;101551.47;6231753;28;20233;-51
2021/10/06 15:20:03;;;;;;;2.47;1.42;;;;;;;17.34;46.13;101551.06;6236182;28;20225;-50
2021/10/06 15:23:23;;;;;;;1.95;1.65;;;;;;;17.05;47.52;101562.31;6238059;28;20328;-50
2021/10/06 15:26:45;;;;;;;1.90;1.38;;;;;;;16.18;49.56;101568.56;6232688;28;20614;-51
2021/10/06 15:30:09;;;;;;;1.40;1.30;;;;;;;16.88;48.35;101567.97;6216604;28;20644;-54
2021/10/06 15:33:30;;;;;;;2.03;1.60;;;;;;;16.76;49.17;101565.59;6234353;28;20613;-53
2021/10/06 15:36:51;;;;;;;3.40;1.37;;;;;;;16.61;49.68;101572.91;6233839;28;20252;-50
2021/10/06 15:40:27;;;;;;;;;;;;;;;;;;;;;